createdAt,value
2022-11-20T00:01:21.685Z,9.24
2022-11-20T00:03:48.776Z,9.38
2022-11-20T00:06:18.765Z,9.43
2022-11-20T00:08:46.328Z,9.48
2022-11-20T00:11:18.104Z,9.55
2022-11-20T00:13:46.495Z,9.57
2022-11-20T00:16:16.287Z,9.56
2022-11-20T00:18:45.827Z,9.18
2022-11-20T00:21:22.627Z,9.50
2022-11-20T00:23:53.860Z,9.43
2022-11-20T00:26:24.366Z,9.59
2022-11-20T00:29:00.110Z,9.52
2022-11-20T00:31:28.530Z,9.57
2022-11-20T00:33:55.497Z,9.54
2022-11-20T00:36:25.431Z,9.32
2022-11-20T00:38:54.310Z,9.44
2022-11-20T00:41:21.672Z,9.58
2022-11-20T00:43:48.584Z,9.49
2022-11-20T00:46:22.479Z,9.26
2022-11-20T00:48:49.512Z,9.34
2022-11-20T00:51:20.186Z,9.02
2022-11-20T00:53:47.811Z,9.09
2022-11-20T00:56:18.189Z,9.62
2022-11-20T00:58:47.838Z,9.11
2022-11-20T01:01:19.420Z,9.00
2022-11-20T01:03:50.064Z,9.03
2022-11-20T01:06:21.240Z,8.85
2022-11-20T01:08:49.442Z,8.94
2022-11-20T01:11:20.203Z,8.92
2022-11-20T01:13:49.196Z,8.76
2022-11-20T01:16:23.453Z,8.91
2022-11-20T01:18:53.783Z,8.89
2022-11-20T01:21:33.714Z,9.16
2022-11-20T01:24:01.447Z,8.87
2022-11-20T01:26:33.168Z,9.01
2022-11-20T01:29:01.292Z,9.21
2022-11-20T01:31:30.846Z,8.95
2022-11-20T01:34:01.332Z,9.19
2022-11-20T01:36:30.381Z,9.20
2022-11-20T01:39:00.822Z,9.11
2022-11-20T01:41:48.926Z,9.20
2022-11-20T01:44:19.151Z,9.40
2022-11-20T01:46:57.780Z,9.24
2022-11-20T01:49:43.757Z,9.17
2022-11-20T01:52:15.636Z,9.22
2022-11-20T01:54:50.822Z,9.17
2022-11-20T01:57:20.704Z,9.21
2022-11-20T02:00:01.005Z,9.21
2022-11-20T02:02:28.501Z,8.98
2022-11-20T02:05:03.777Z,8.78
2022-11-20T02:07:31.812Z,9.05
2022-11-20T02:09:59.109Z,9.07
2022-11-20T02:12:44.639Z,8.49
2022-11-20T02:15:11.672Z,8.68
2022-11-20T02:17:39.220Z,8.74
2022-11-20T02:20:07.390Z,9.04
2022-11-20T02:22:49.599Z,9.12
2022-11-20T02:25:17.126Z,8.88
2022-11-20T02:27:44.223Z,8.93
2022-11-20T02:30:12.028Z,8.91
2022-11-20T02:32:39.828Z,9.02
2022-11-20T02:35:10.829Z,9.06
2022-11-20T02:37:41.309Z,9.03
2022-11-20T02:40:09.200Z,8.89
2022-11-20T02:42:37.237Z,8.97
2022-11-20T02:45:05.946Z,9.03
2022-11-20T02:47:33.428Z,8.86
2022-11-20T02:50:00.387Z,8.91
2022-11-20T02:52:27.380Z,8.75
2022-11-20T02:54:54.244Z,8.74
2022-11-20T02:57:21.217Z,8.63
2022-11-20T02:59:48.020Z,8.56
2022-11-20T03:02:14.803Z,8.26
2022-11-20T03:04:41.619Z,8.45
2022-11-20T03:07:10.716Z,8.21
2022-11-20T03:09:37.844Z,8.43
2022-11-20T03:12:05.245Z,8.53
2022-11-20T03:14:32.103Z,8.60
2022-11-20T03:16:58.957Z,8.55
2022-11-20T03:19:25.780Z,8.68
2022-11-20T03:21:52.592Z,8.79
2022-11-20T03:24:19.458Z,8.45
2022-11-20T03:26:46.338Z,8.60
2022-11-20T03:29:13.231Z,8.57
2022-11-20T03:31:41.910Z,8.73
2022-11-20T03:34:10.775Z,8.62
2022-11-20T03:36:42.873Z,8.05
2022-11-20T03:39:10.656Z,8.45
2022-11-20T03:41:40.845Z,8.52
2022-11-20T03:44:10.874Z,8.37
2022-11-20T03:46:38.042Z,8.44
2022-11-20T03:49:05.605Z,8.44
2022-11-20T03:51:35.707Z,8.41
2022-11-20T03:54:08.600Z,8.70
2022-11-20T03:56:38.714Z,8.79
2022-11-20T03:59:06.048Z,8.59
2022-11-20T04:01:36.142Z,8.33
2022-11-20T04:04:04.115Z,8.46
2022-11-20T04:06:36.827Z,8.64
2022-11-20T04:09:04.760Z,8.37
2022-11-20T04:11:35.083Z,8.22
2022-11-20T04:14:05.913Z,8.45
2022-11-20T04:16:37.222Z,8.69
2022-11-20T04:19:07.539Z,8.73
2022-11-20T04:21:34.604Z,8.71
2022-11-20T04:24:01.959Z,8.31
2022-11-20T04:26:30.128Z,8.24
2022-11-20T04:28:58.277Z,8.38
2022-11-20T04:31:28.620Z,8.62
2022-11-20T04:33:55.873Z,8.45
2022-11-20T04:36:27.737Z,8.61
2022-11-20T04:39:00.282Z,8.56
2022-11-20T04:41:30.689Z,8.72
2022-11-20T04:44:03.271Z,8.62
2022-11-20T04:46:32.903Z,8.74
2022-11-20T04:49:00.772Z,8.66
2022-11-20T04:51:28.428Z,8.59
2022-11-20T04:53:55.412Z,8.74
2022-11-20T04:56:22.337Z,8.54
2022-11-20T04:58:49.248Z,8.66
2022-11-20T05:01:25.079Z,8.76
2022-11-20T05:03:52.567Z,8.29
2022-11-20T05:06:22.209Z,8.53
2022-11-20T05:08:49.324Z,8.76
2022-11-20T05:11:20.457Z,8.74
2022-11-20T05:13:47.749Z,8.63
2022-11-20T05:16:18.385Z,8.55
2022-11-20T05:18:45.729Z,8.50
2022-11-20T05:21:14.172Z,8.78
2022-11-20T05:23:42.093Z,8.77
2022-11-20T05:26:22.151Z,8.36
2022-11-20T05:28:50.062Z,8.76
2022-11-20T05:31:27.252Z,8.75
2022-11-20T05:33:56.640Z,8.80
2022-11-20T05:36:23.808Z,8.92
2022-11-20T05:38:51.345Z,8.91
2022-11-20T05:41:20.860Z,8.72
2022-11-20T05:43:49.330Z,8.82
2022-11-20T05:46:21.263Z,8.80
2022-11-20T05:48:51.794Z,8.95
2022-11-20T05:51:20.679Z,8.75
2022-11-20T05:53:48.764Z,8.63
2022-11-20T05:56:21.418Z,8.75
2022-11-20T05:58:49.048Z,8.82
2022-11-20T06:01:25.450Z,8.75
2022-11-20T06:03:54.144Z,8.77
2022-11-20T06:06:22.037Z,8.76
2022-11-20T06:08:49.804Z,8.72
2022-11-20T06:11:17.965Z,8.65
2022-11-20T06:13:46.347Z,8.63
2022-11-20T06:16:16.932Z,8.45
2022-11-20T06:18:43.952Z,8.31
2022-11-20T06:21:19.574Z,8.38
2022-11-20T06:23:46.717Z,8.49
2022-11-20T06:26:24.194Z,8.44
2022-11-20T06:28:52.168Z,8.52
2022-11-20T06:31:22.257Z,8.53
2022-11-20T06:33:49.948Z,8.60
2022-11-20T06:36:20.094Z,8.66
2022-11-20T06:38:46.948Z,8.69
2022-11-20T06:41:17.092Z,8.70
2022-11-20T06:43:44.293Z,8.62
2022-11-20T06:46:13.392Z,8.39
2022-11-20T06:48:41.084Z,8.52
2022-11-20T06:51:09.296Z,8.55
2022-11-20T06:53:37.179Z,8.62
2022-11-20T06:56:04.672Z,8.60
2022-11-20T06:58:33.623Z,8.53
2022-11-20T07:01:12.482Z,8.18
2022-11-20T07:03:40.631Z,8.40
2022-11-20T07:06:07.904Z,8.32
2022-11-20T07:08:35.836Z,7.93
2022-11-20T07:11:06.315Z,8.41
2022-11-20T07:13:33.911Z,8.54
2022-11-20T07:16:07.358Z,8.73
2022-11-20T07:18:34.786Z,8.76
2022-11-20T07:21:03.631Z,8.75
2022-11-20T07:23:30.670Z,8.76
2022-11-20T07:25:57.461Z,8.75
2022-11-20T07:28:24.251Z,8.94
2022-11-20T07:30:54.541Z,8.90
2022-11-20T07:33:22.003Z,8.93
2022-11-20T07:35:48.847Z,9.00
2022-11-20T07:38:16.043Z,8.94
2022-11-20T07:40:42.872Z,8.82
2022-11-20T07:43:09.691Z,9.02
2022-11-20T07:45:36.561Z,9.04
2022-11-20T07:48:03.641Z,8.72
2022-11-20T07:50:30.545Z,9.18
2022-11-20T07:53:06.854Z,8.97
2022-11-20T07:55:34.202Z,9.04
2022-11-20T07:58:01.175Z,8.70
2022-11-20T08:00:28.613Z,9.06
2022-11-20T08:02:55.755Z,8.61
2022-11-20T08:05:22.633Z,8.70
2022-11-20T08:07:49.576Z,9.30
2022-11-20T08:10:17.311Z,9.04
2022-11-20T08:13:10.734Z,9.35
2022-11-20T08:15:39.771Z,9.01
2022-11-20T08:20:57.158Z,9.14
2022-11-20T08:23:24.858Z,9.30
2022-11-20T08:25:52.203Z,9.40
2022-11-20T08:28:21.632Z,9.63
2022-11-20T08:30:51.007Z,9.56
2022-11-20T08:33:18.992Z,9.22
2022-11-20T08:35:45.957Z,9.42
2022-11-20T08:38:12.825Z,9.78
2022-11-20T08:40:39.620Z,9.52
2022-11-20T08:43:06.449Z,9.48
2022-11-20T08:45:35.040Z,9.87
2022-11-20T08:48:04.117Z,9.75
2022-11-20T08:50:33.353Z,9.60
2022-11-20T08:53:07.266Z,10.22
2022-11-20T08:55:36.488Z,10.02
2022-11-20T08:58:07.811Z,10.40
2022-11-20T09:00:35.416Z,10.27
2022-11-20T09:03:02.853Z,9.97
2022-11-20T09:05:30.262Z,10.17
2022-11-20T09:08:00.391Z,10.23
2022-11-20T09:10:28.536Z,10.38
2022-11-20T09:12:56.502Z,10.20
2022-11-20T09:15:25.072Z,10.59
2022-11-20T09:18:01.885Z,10.49
2022-11-20T09:20:32.065Z,10.52
2022-11-20T09:22:59.098Z,10.19
2022-11-20T09:25:26.270Z,9.93
2022-11-20T09:28:00.002Z,10.28
2022-11-20T09:30:28.010Z,10.49
2022-11-20T09:32:55.308Z,10.47
2022-11-20T09:35:22.130Z,10.25
2022-11-20T09:37:49.024Z,10.56
2022-11-20T09:40:23.859Z,10.70
2022-11-20T09:42:58.652Z,10.75
2022-11-20T09:46:21.109Z,10.75
2022-11-20T09:49:09.117Z,10.49
2022-11-20T09:51:42.669Z,10.45
2022-11-20T09:54:36.683Z,10.65
2022-11-20T09:57:13.681Z,10.52
2022-11-20T09:59:52.265Z,10.64
2022-11-20T10:02:27.733Z,10.15
2022-11-20T10:05:10.410Z,10.70
2022-11-20T10:08:00.290Z,10.45
2022-11-20T10:10:52.425Z,10.47
2022-11-20T10:13:46.291Z,10.78
2022-11-20T10:16:15.715Z,10.87
2022-11-20T10:18:56.128Z,10.75
2022-11-20T10:21:48.187Z,11.31
2022-11-20T10:24:42.615Z,11.08
2022-11-20T10:27:45.714Z,11.81
2022-11-20T10:30:15.941Z,12.31
2022-11-20T10:32:48.086Z,12.71
2022-11-20T10:35:14.765Z,13.20
2022-11-20T10:37:46.372Z,13.21
2022-11-20T10:40:45.453Z,12.91
2022-11-20T10:43:33.892Z,12.80
2022-11-20T10:46:13.621Z,12.56
2022-11-20T10:48:44.383Z,12.57
2022-11-20T10:51:37.878Z,13.11
2022-11-20T10:54:59.953Z,13.02
2022-11-20T10:57:55.346Z,12.45
2022-11-20T11:00:22.477Z,12.11
2022-11-20T11:02:52.517Z,11.94
2022-11-20T11:05:41.665Z,11.59
2022-11-20T11:08:17.160Z,11.41
2022-11-20T11:11:19.710Z,10.96
2022-11-20T11:13:46.777Z,10.87
2022-11-20T11:16:26.816Z,11.07
2022-11-20T11:19:14.258Z,11.33
2022-11-20T11:21:55.612Z,11.30
2022-11-20T11:24:44.197Z,11.35
2022-11-20T11:27:18.669Z,10.98
2022-11-20T11:29:47.013Z,10.76
2022-11-20T11:32:20.176Z,10.57
2022-11-20T11:35:04.314Z,11.35
2022-11-20T11:37:39.697Z,11.67
2022-11-20T11:40:28.539Z,11.95
2022-11-20T11:43:00.871Z,11.92
2022-11-20T11:45:28.816Z,12.15
2022-11-20T11:47:58.876Z,11.94
2022-11-20T11:50:30.430Z,12.46
2022-11-20T11:53:10.868Z,11.35
2022-11-20T11:55:49.006Z,11.45
2022-11-20T11:58:25.179Z,11.36
2022-11-20T12:01:01.528Z,11.26
2022-11-20T12:03:44.803Z,11.52
2022-11-20T12:06:17.458Z,11.32
2022-11-20T12:09:08.836Z,11.07
2022-11-20T12:12:04.221Z,11.26
2022-11-20T12:14:41.098Z,11.29
2022-11-20T12:17:13.090Z,11.62
2022-11-20T12:19:40.438Z,11.20
2022-11-20T12:22:29.808Z,11.57
2022-11-20T12:25:12.978Z,11.05
2022-11-20T12:28:06.679Z,11.61
2022-11-20T12:30:49.579Z,11.59
2022-11-20T12:33:50.513Z,11.50
2022-11-20T12:36:21.059Z,11.71
2022-11-20T12:39:19.344Z,11.70
2022-11-20T12:42:23.379Z,11.63
2022-11-20T12:45:11.353Z,12.22
2022-11-20T12:48:16.267Z,12.20
2022-11-20T12:51:26.119Z,11.13
2022-11-20T12:54:31.106Z,11.61
2022-11-20T12:57:22.647Z,10.84
2022-11-20T13:00:16.002Z,11.30
2022-11-20T13:03:00.304Z,11.00
2022-11-20T13:05:57.116Z,11.12
2022-11-20T13:08:39.207Z,10.81
2022-11-20T13:11:35.614Z,11.15
2022-11-20T13:14:27.436Z,11.30
2022-11-20T13:17:06.318Z,10.88
2022-11-20T13:19:34.263Z,10.79
2022-11-20T13:22:01.245Z,10.83
2022-11-20T13:24:32.234Z,10.81
2022-11-20T13:27:13.987Z,10.83
2022-11-20T13:29:46.378Z,9.99
2022-11-20T13:32:19.279Z,10.00
2022-11-20T13:35:01.657Z,9.97
2022-11-20T13:37:38.599Z,10.12
2022-11-20T13:40:11.423Z,10.04
2022-11-20T13:42:43.955Z,10.37
2022-11-20T13:45:23.821Z,10.50
2022-11-20T13:47:53.098Z,10.50
2022-11-20T13:50:26.335Z,10.25
2022-11-20T13:53:38.925Z,10.32
2022-11-20T13:56:10.166Z,10.21
2022-11-20T13:59:05.341Z,9.97
2022-11-20T14:01:33.591Z,9.90
2022-11-20T14:04:08.068Z,10.23
2022-11-20T14:06:43.720Z,10.09
2022-11-20T14:09:33.362Z,10.08
2022-11-20T14:12:00.729Z,10.20
2022-11-20T14:14:33.303Z,10.31
2022-11-20T14:17:34.522Z,10.08
2022-11-20T14:20:06.258Z,9.96
2022-11-20T14:22:33.113Z,10.28
2022-11-20T14:25:18.331Z,9.63
2022-11-20T14:27:55.255Z,10.01
2022-11-20T14:30:25.991Z,10.14
2022-11-20T14:33:01.422Z,10.06
2022-11-20T14:35:32.640Z,10.12
2022-11-20T14:37:59.715Z,10.05
2022-11-20T14:40:36.784Z,10.02
2022-11-20T14:43:28.013Z,10.03
2022-11-20T14:46:10.187Z,10.16
2022-11-20T14:49:01.759Z,9.93
2022-11-20T14:51:37.758Z,10.10
2022-11-20T14:54:26.440Z,9.85
2022-11-20T14:57:02.722Z,9.89
2022-11-20T14:59:35.021Z,10.01
2022-11-20T15:02:12.246Z,10.11
2022-11-20T15:04:50.183Z,10.11
2022-11-20T15:07:29.352Z,10.18
2022-11-20T15:10:10.524Z,10.10
2022-11-20T15:12:47.782Z,9.93
2022-11-20T15:15:51.273Z,9.99
2022-11-20T15:18:23.427Z,10.00
2022-11-20T15:20:51.126Z,9.51
2022-11-20T15:23:20.048Z,9.83
2022-11-20T15:25:48.497Z,9.73
2022-11-20T15:28:31.471Z,9.46
2022-11-20T15:30:58.794Z,9.69
2022-11-20T15:33:25.786Z,9.54
2022-11-20T15:35:52.631Z,9.42
2022-11-20T15:38:19.432Z,9.40
2022-11-20T15:40:46.191Z,9.45
2022-11-20T15:43:13.967Z,9.39
2022-11-20T15:45:56.818Z,9.39
2022-11-20T15:48:30.942Z,9.19
2022-11-20T15:51:12.771Z,8.95
2022-11-20T15:53:42.009Z,9.09
2022-11-20T15:56:15.729Z,9.13
2022-11-20T15:58:42.815Z,9.26
2022-11-20T16:01:15.778Z,9.22
2022-11-20T16:03:43.114Z,9.17
2022-11-20T16:06:10.072Z,9.27
2022-11-20T16:08:37.067Z,9.38
2022-11-20T16:11:04.729Z,9.27
2022-11-20T16:13:51.843Z,9.34
2022-11-20T16:16:33.567Z,9.20
2022-11-20T16:19:01.183Z,9.15
2022-11-20T16:21:32.235Z,9.08
2022-11-20T16:24:05.831Z,9.46
2022-11-20T16:26:33.803Z,9.04
2022-11-20T16:29:03.394Z,9.45
2022-11-20T16:31:30.432Z,9.46
2022-11-20T16:34:00.911Z,9.33
2022-11-20T16:36:30.207Z,9.09
2022-11-20T16:39:00.601Z,9.29
2022-11-20T16:41:30.733Z,9.25
2022-11-20T16:44:00.495Z,8.96
2022-11-20T16:46:30.856Z,8.93
2022-11-20T16:49:06.378Z,8.90
2022-11-20T16:51:36.108Z,8.89
2022-11-20T16:54:08.593Z,8.88
2022-11-20T16:56:36.070Z,8.79
2022-11-20T16:59:03.674Z,8.74
2022-11-20T17:01:31.785Z,8.65
2022-11-20T17:04:05.187Z,8.68
2022-11-20T17:06:44.049Z,8.67
2022-11-20T17:09:11.507Z,8.51
2022-11-20T17:11:38.728Z,8.69
2022-11-20T17:14:07.397Z,8.57
2022-11-20T17:16:36.183Z,8.62
2022-11-20T17:19:04.091Z,8.51
2022-11-20T17:21:35.834Z,8.48
2022-11-20T17:24:08.407Z,8.53
2022-11-20T17:26:37.667Z,8.44
2022-11-20T17:29:09.587Z,8.38
2022-11-20T17:31:41.007Z,8.33
2022-11-20T17:34:11.540Z,8.16
2022-11-20T17:36:45.716Z,8.24
2022-11-20T17:39:14.936Z,8.22
2022-11-20T17:41:42.058Z,8.21
2022-11-20T17:44:12.835Z,8.27
2022-11-20T17:46:40.039Z,8.23
2022-11-20T17:49:07.436Z,8.34
2022-11-20T17:51:37.879Z,8.19
2022-11-20T17:54:09.521Z,8.10
2022-11-20T17:56:55.264Z,8.10
2022-11-20T17:59:22.298Z,8.11
2022-11-20T18:01:49.345Z,8.14
2022-11-20T18:04:16.821Z,8.11
2022-11-20T18:06:44.090Z,7.99
2022-11-20T18:09:11.563Z,8.06
2022-11-20T18:11:41.979Z,7.98
2022-11-20T18:14:36.254Z,7.99
2022-11-20T18:17:10.769Z,8.02
2022-11-20T18:19:55.536Z,7.99
2022-11-20T18:22:31.292Z,8.02
2022-11-20T18:24:58.227Z,7.99
2022-11-20T18:27:25.055Z,7.98
2022-11-20T18:29:52.328Z,7.97
2022-11-20T18:32:21.756Z,7.98
2022-11-20T18:34:48.736Z,7.92
2022-11-20T18:37:16.513Z,7.87
2022-11-20T18:39:43.605Z,7.82
2022-11-20T18:42:34.837Z,7.81
2022-11-20T18:45:04.648Z,7.75
2022-11-20T18:47:37.290Z,7.62
2022-11-20T18:50:07.927Z,7.53
2022-11-20T18:52:44.276Z,7.43
2022-11-20T18:55:12.593Z,7.34
2022-11-20T18:57:39.434Z,7.21
2022-11-20T19:00:09.684Z,7.17
2022-11-20T19:02:43.019Z,7.07
2022-11-20T19:05:14.755Z,7.05
2022-11-20T19:07:42.388Z,6.98
2022-11-20T19:10:09.596Z,6.88
2022-11-20T19:12:36.516Z,6.88
2022-11-20T19:15:04.199Z,6.84
2022-11-20T19:17:33.016Z,6.70
2022-11-20T19:20:00.231Z,6.84
2022-11-20T19:22:27.122Z,6.88
2022-11-20T19:24:54.624Z,6.90
2022-11-20T19:27:21.502Z,6.89
2022-11-20T19:29:48.429Z,6.79
2022-11-20T19:32:16.265Z,6.84
2022-11-20T19:34:43.657Z,6.84
2022-11-20T19:37:10.653Z,6.88
2022-11-20T19:39:37.710Z,6.84
2022-11-20T19:42:04.606Z,6.81
2022-11-20T19:44:32.928Z,6.83
2022-11-20T19:47:00.434Z,6.94
2022-11-20T19:49:27.264Z,7.01
2022-11-20T19:51:54.102Z,6.98
2022-11-20T19:54:20.966Z,6.98
2022-11-20T19:56:49.413Z,6.99
2022-11-20T19:59:16.397Z,7.07
2022-11-20T20:01:43.490Z,7.09
2022-11-20T20:04:10.376Z,7.09
2022-11-20T20:06:41.623Z,7.06
2022-11-20T20:09:11.951Z,7.01
2022-11-20T20:11:39.980Z,7.04
2022-11-20T20:14:14.974Z,7.05
2022-11-20T20:16:42.671Z,7.08
2022-11-20T20:19:14.493Z,7.11
2022-11-20T20:21:41.468Z,7.13
2022-11-20T20:24:11.016Z,7.14
2022-11-20T20:26:38.132Z,7.11
2022-11-20T20:29:04.918Z,7.14
2022-11-20T20:31:33.709Z,7.18
2022-11-20T20:34:03.223Z,7.17
2022-11-20T20:36:30.163Z,7.20
2022-11-20T20:39:04.909Z,7.25
2022-11-20T20:41:32.164Z,7.22
2022-11-20T20:44:17.831Z,7.24
2022-11-20T20:46:44.704Z,7.20
2022-11-20T20:49:11.954Z,7.20
2022-11-20T20:51:39.030Z,7.15
2022-11-20T20:54:06.008Z,7.10
2022-11-20T20:56:32.852Z,7.07
2022-11-20T20:58:59.664Z,7.12
2022-11-20T21:01:29.017Z,7.14
2022-11-20T21:03:57.082Z,7.18
2022-11-20T21:06:24.179Z,7.27
2022-11-20T21:08:51.729Z,7.23
2022-11-20T21:11:20.349Z,7.24
2022-11-20T21:13:47.941Z,7.29
2022-11-20T21:16:17.871Z,7.28
2022-11-20T21:18:44.758Z,7.33
2022-11-20T21:21:34.928Z,7.41
2022-11-20T21:24:02.832Z,7.37
2022-11-20T21:26:30.108Z,7.40
2022-11-20T21:28:57.548Z,7.42
2022-11-20T21:31:26.694Z,7.37
2022-11-20T21:33:56.357Z,7.49
2022-11-20T21:36:26.740Z,7.48
2022-11-20T21:38:55.218Z,7.48
2022-11-20T21:41:23.926Z,7.37
2022-11-20T21:44:29.034Z,7.07
2022-11-20T21:46:45.261Z,7.37
2022-11-20T21:49:12.777Z,7.31
2022-11-20T21:51:39.588Z,7.36
2022-11-20T21:54:06.443Z,7.88
2022-11-20T21:56:33.490Z,7.62
2022-11-20T21:59:00.539Z,7.60
2022-11-20T22:01:30.166Z,7.84
2022-11-20T22:04:02.052Z,7.98
2022-11-20T22:06:34.275Z,7.81
2022-11-20T22:09:02.688Z,7.86
2022-11-20T22:11:30.093Z,7.78
2022-11-20T22:14:15.290Z,8.10
2022-11-20T22:16:42.167Z,7.81
2022-11-20T22:19:09.624Z,8.10
2022-11-20T22:21:39.627Z,8.07
2022-11-20T22:24:06.738Z,7.64
2022-11-20T22:26:40.130Z,7.78
2022-11-20T22:29:08.396Z,7.83
2022-11-20T22:31:35.207Z,7.92
2022-11-20T22:34:02.874Z,8.09
2022-11-20T22:36:31.545Z,7.85
2022-11-20T22:38:58.782Z,7.52
2022-11-20T22:41:28.240Z,8.03
2022-11-20T22:44:00.592Z,7.94
2022-11-20T22:46:30.597Z,7.67
2022-11-20T22:49:01.335Z,7.65
2022-11-20T22:51:35.093Z,7.54
2022-11-20T22:54:03.499Z,7.63
2022-11-20T22:56:31.031Z,7.52
2022-11-20T22:58:57.862Z,7.52
2022-11-20T23:01:30.968Z,7.41
2022-11-20T23:04:04.503Z,7.21
2022-11-20T23:06:34.341Z,7.28
2022-11-20T23:09:02.898Z,7.41
2022-11-20T23:11:31.503Z,7.56
2022-11-20T23:14:05.277Z,7.28
2022-11-20T23:16:33.532Z,7.36
2022-11-20T23:19:04.847Z,7.40
2022-11-20T23:21:32.466Z,7.49
2022-11-20T23:24:00.081Z,7.75
2022-11-20T23:26:30.650Z,8.00
2022-11-20T23:28:59.049Z,7.47
2022-11-20T23:31:28.358Z,7.33
2022-11-20T23:33:55.467Z,7.22
2022-11-20T23:36:22.568Z,7.38
2022-11-20T23:38:49.480Z,7.20
2022-11-20T23:41:16.848Z,7.35
2022-11-20T23:43:43.774Z,7.27
2022-11-20T23:46:15.109Z,7.54
2022-11-20T23:48:44.797Z,7.37
2022-11-20T23:51:11.627Z,7.29
2022-11-20T23:53:38.569Z,7.06
2022-11-20T23:56:06.094Z,7.12
2022-11-20T23:58:35.999Z,7.22
